Terminal Aerodrome Forecast
Issued by NWS Atlanta, GA

Home | Current Version | Previous Version | Text Only | Print | Product List | Glossary On
Versions: 1 2 3 4 5 6 7 8 9 10 11 12 13
936
FTUS42 KFFC 161727
TAFCSG
TAF
KCSG 161727Z 1618/1718 VRB03KT P6SM SCT250
     FM170100 00000KT P6SM FEW100 SCT250
     FM171400 13003KT P6SM SCT040 SCT100 BKN200
     FM171700 14004KT P6SM BKN040 BKN070=

USA.gov is the U.S. government's official web portal to all federal, state and local government web resources and services.